sensor_id;sensor_type;location;lat;lon;timestamp;P1;durP1;ratioP1;P2;durP2;ratioP2
72575;SDS011;60613;48.658;2.328;2023-05-07T06:02:39;2.47;;;0.60;;
72575;SDS011;60613;48.658;2.328;2023-05-07T06:05:05;1.97;;;0.63;;
72575;SDS011;60613;48.658;2.328;2023-05-07T06:07:31;2.25;;;0.50;;
72575;SDS011;60613;48.658;2.328;2023-05-07T06:09:57;2.35;;;0.50;;
72575;SDS011;60613;48.658;2.328;2023-05-07T06:12:22;1.50;;;0.50;;
72575;SDS011;60613;48.658;2.328;2023-05-07T06:14:48;1.13;;;0.50;;
72575;SDS011;60613;48.658;2.328;2023-05-07T06:17:13;1.63;;;0.60;;
72575;SDS011;60613;48.658;2.328;2023-05-07T06:19:39;1.73;;;0.50;;
72575;SDS011;60613;48.658;2.328;2023-05-07T06:22:04;1.58;;;0.50;;
72575;SDS011;60613;48.658;2.328;2023-05-07T06:24:30;1.00;;;0.40;;
72575;SDS011;60613;48.658;2.328;2023-05-07T06:26:56;2.50;;;0.47;;
72575;SDS011;60613;48.658;2.328;2023-05-07T06:29:23;2.35;;;0.60;;
72575;SDS011;60613;48.658;2.328;2023-05-07T06:31:51;1.23;;;0.50;;
72575;SDS011;60613;48.658;2.328;2023-05-07T06:34:19;0.73;;;0.50;;
72575;SDS011;60613;48.658;2.328;2023-05-07T06:36:45;2.00;;;0.50;;
72575;SDS011;60613;48.658;2.328;2023-05-07T06:39:10;1.17;;;0.52;;
72575;SDS011;60613;48.658;2.328;2023-05-07T06:41:36;0.73;;;0.50;;
72575;SDS011;60613;48.658;2.328;2023-05-07T06:44:02;1.10;;;0.40;;
72575;SDS011;60613;48.658;2.328;2023-05-07T06:46:28;2.28;;;0.50;;
72575;SDS011;60613;48.658;2.328;2023-05-07T06:48:54;1.08;;;0.52;;
72575;SDS011;60613;48.658;2.328;2023-05-07T06:51:21;1.45;;;0.40;;
72575;SDS011;60613;48.658;2.328;2023-05-07T06:53:47;1.77;;;0.60;;
72575;SDS011;60613;48.658;2.328;2023-05-07T06:56:12;1.30;;;0.50;;
72575;SDS011;60613;48.658;2.328;2023-05-07T06:58:38;0.80;;;0.40;;
72575;SDS011;60613;48.658;2.328;2023-05-07T07:01:04;2.30;;;0.60;;
72575;SDS011;60613;48.658;2.328;2023-05-07T07:03:29;1.47;;;0.50;;
72575;SDS011;60613;48.658;2.328;2023-05-07T07:05:55;1.75;;;0.50;;
72575;SDS011;60613;48.658;2.328;2023-05-07T07:08:21;1.10;;;0.40;;
72575;SDS011;60613;48.658;2.328;2023-05-07T07:10:47;1.88;;;0.60;;
72575;SDS011;60613;48.658;2.328;2023-05-07T07:13:13;1.50;;;0.60;;
72575;SDS011;60613;48.658;2.328;2023-05-07T07:15:38;1.77;;;0.60;;
72575;SDS011;60613;48.658;2.328;2023-05-07T07:18:05;2.10;;;0.60;;
72575;SDS011;60613;48.658;2.328;2023-05-07T07:20:31;1.40;;;0.60;;
72575;SDS011;60613;48.658;2.328;2023-05-07T07:22:57;2.58;;;0.73;;
72575;SDS011;60613;48.658;2.328;2023-05-07T07:25:22;3.13;;;0.70;;
72575;SDS011;60613;48.658;2.328;2023-05-07T07:27:48;2.20;;;0.70;;
72575;SDS011;60613;48.658;2.328;2023-05-07T07:30:14;2.03;;;0.70;;
72575;SDS011;60613;48.658;2.328;2023-05-07T07:32:43;2.40;;;0.80;;
72575;SDS011;60613;48.658;2.328;2023-05-07T07:35:08;2.97;;;0.77;;
72575;SDS011;60613;48.658;2.328;2023-05-07T07:37:34;2.67;;;0.80;;
72575;SDS011;60613;48.658;2.328;2023-05-07T07:40:00;1.97;;;0.70;;
72575;SDS011;60613;48.658;2.328;2023-05-07T07:42:26;3.60;;;0.80;;
72575;SDS011;60613;48.658;2.328;2023-05-07T07:44:51;2.43;;;0.80;;
72575;SDS011;60613;48.658;2.328;2023-05-07T07:47:17;2.15;;;0.80;;
72575;SDS011;60613;48.658;2.328;2023-05-07T07:49:43;2.13;;;0.80;;
72575;SDS011;60613;48.658;2.328;2023-05-07T07:52:08;4.63;;;0.90;;
72575;SDS011;60613;48.658;2.328;2023-05-07T07:54:34;3.17;;;0.90;;
72575;SDS011;60613;48.658;2.328;2023-05-07T07:57:00;3.35;;;0.90;;
72575;SDS011;60613;48.658;2.328;2023-05-07T07:59:26;4.43;;;1.03;;
72575;SDS011;60613;48.658;2.328;2023-05-07T08:01:52;6.35;;;1.08;;
72575;SDS011;60613;48.658;2.328;2023-05-07T08:04:20;6.28;;;0.80;;
72575;SDS011;60613;48.658;2.328;2023-05-07T08:06:46;8.40;;;1.45;;
72575;SDS011;60613;48.658;2.328;2023-05-07T08:09:12;9.70;;;1.30;;
72575;SDS011;60613;48.658;2.328;2023-05-07T08:11:37;7.95;;;1.00;;
72575;SDS011;60613;48.658;2.328;2023-05-07T08:14:03;9.55;;;1.35;;
72575;SDS011;60613;48.658;2.328;2023-05-07T08:16:29;9.67;;;1.43;;
72575;SDS011;60613;48.658;2.328;2023-05-07T08:18:55;12.87;;;1.63;;
72575;SDS011;60613;48.658;2.328;2023-05-07T08:21:21;9.50;;;1.33;;
72575;SDS011;60613;48.658;2.328;2023-05-07T08:23:47;8.77;;;1.40;;
72575;SDS011;60613;48.658;2.328;2023-05-07T08:26:13;9.43;;;1.55;;
72575;SDS011;60613;48.658;2.328;2023-05-07T08:28:39;7.90;;;1.20;;
72575;SDS011;60613;48.658;2.328;2023-05-07T08:31:04;11.55;;;1.48;;
72575;SDS011;60613;48.658;2.328;2023-05-07T08:33:30;7.80;;;1.20;;
72575;SDS011;60613;48.658;2.328;2023-05-07T08:35:56;11.90;;;1.40;;
72575;SDS011;60613;48.658;2.328;2023-05-07T08:38:22;9.10;;;1.40;;
72575;SDS011;60613;48.658;2.328;2023-05-07T08:40:47;7.45;;;1.40;;
72575;SDS011;60613;48.658;2.328;2023-05-07T08:43:13;6.33;;;1.10;;
72575;SDS011;60613;48.658;2.328;2023-05-07T08:45:40;9.32;;;1.35;;
72575;SDS011;60613;48.658;2.328;2023-05-07T08:48:09;9.35;;;1.20;;
72575;SDS011;60613;48.658;2.328;2023-05-07T08:50:41;8.90;;;1.30;;
72575;SDS011;60613;48.658;2.328;2023-05-07T08:53:06;7.47;;;1.20;;
72575;SDS011;60613;48.658;2.328;2023-05-07T08:55:32;9.77;;;1.17;;
72575;SDS011;60613;48.658;2.328;2023-05-07T08:57:58;5.53;;;0.93;;
72575;SDS011;60613;48.658;2.328;2023-05-07T09:00:24;7.07;;;1.50;;
72575;SDS011;60613;48.658;2.328;2023-05-07T09:02:50;9.45;;;1.20;;
72575;SDS011;60613;48.658;2.328;2023-05-07T09:05:16;7.32;;;1.30;;
72575;SDS011;60613;48.658;2.328;2023-05-07T09:07:42;5.53;;;1.10;;
72575;SDS011;60613;48.658;2.328;2023-05-07T09:10:09;6.97;;;1.10;;
72575;SDS011;60613;48.658;2.328;2023-05-07T09:12:35;7.47;;;1.55;;
72575;SDS011;60613;48.658;2.328;2023-05-07T09:15:01;13.18;;;1.67;;
72575;SDS011;60613;48.658;2.328;2023-05-07T09:17:27;13.02;;;2.03;;
72575;SDS011;60613;48.658;2.328;2023-05-07T09:19:53;8.60;;;1.43;;
72575;SDS011;60613;48.658;2.328;2023-05-07T09:22:19;7.53;;;1.27;;
72575;SDS011;60613;48.658;2.328;2023-05-07T09:24:49;6.20;;;1.40;;
72575;SDS011;60613;48.658;2.328;2023-05-07T09:27:15;10.07;;;1.75;;
72575;SDS011;60613;48.658;2.328;2023-05-07T09:29:43;9.60;;;1.50;;
72575;SDS011;60613;48.658;2.328;2023-05-07T09:32:09;9.55;;;1.42;;
72575;SDS011;60613;48.658;2.328;2023-05-07T09:34:39;9.13;;;1.80;;
72575;SDS011;60613;48.658;2.328;2023-05-07T09:37:06;8.48;;;1.40;;
72575;SDS011;60613;48.658;2.328;2023-05-07T09:39:42;8.82;;;1.65;;
72575;SDS011;60613;48.658;2.328;2023-05-07T09:42:09;8.87;;;1.50;;
72575;SDS011;60613;48.658;2.328;2023-05-07T09:44:36;11.85;;;1.13;;
72575;SDS011;60613;48.658;2.328;2023-05-07T09:47:04;6.35;;;1.17;;
72575;SDS011;60613;48.658;2.328;2023-05-07T09:49:30;7.28;;;0.88;;
72575;SDS011;60613;48.658;2.328;2023-05-07T09:52:01;5.93;;;1.10;;
72575;SDS011;60613;48.658;2.328;2023-05-07T09:54:27;7.83;;;1.30;;
72575;SDS011;60613;48.658;2.328;2023-05-07T09:56:54;9.38;;;1.48;;
72575;SDS011;60613;48.658;2.328;2023-05-07T09:59:20;6.15;;;1.10;;
72575;SDS011;60613;48.658;2.328;2023-05-07T10:01:47;6.18;;;1.17;;
72575;SDS011;60613;48.658;2.328;2023-05-07T10:04:17;7.72;;;1.30;;
72575;SDS011;60613;48.658;2.328;2023-05-07T10:06:43;8.23;;;1.37;;
72575;SDS011;60613;48.658;2.328;2023-05-07T10:09:10;4.00;;;0.90;;
72575;SDS011;60613;48.658;2.328;2023-05-07T10:11:36;5.20;;;1.20;;
72575;SDS011;60613;48.658;2.328;2023-05-07T10:14:03;5.90;;;1.00;;
72575;SDS011;60613;48.658;2.328;2023-05-07T10:16:31;4.47;;;1.00;;
72575;SDS011;60613;48.658;2.328;2023-05-07T10:19:01;5.88;;;1.00;;
72575;SDS011;60613;48.658;2.328;2023-05-07T10:21:31;4.97;;;1.10;;
72575;SDS011;60613;48.658;2.328;2023-05-07T10:24:10;5.18;;;1.05;;
72575;SDS011;60613;48.658;2.328;2023-05-07T10:26:45;9.27;;;1.20;;
72575;SDS011;60613;48.658;2.328;2023-05-07T10:29:18;7.68;;;1.10;;
72575;SDS011;60613;48.658;2.328;2023-05-07T10:31:50;5.78;;;1.30;;
72575;SDS011;60613;48.658;2.328;2023-05-07T10:34:21;8.77;;;1.38;;
72575;SDS011;60613;48.658;2.328;2023-05-07T10:36:51;7.47;;;1.20;;
72575;SDS011;60613;48.658;2.328;2023-05-07T10:39:17;5.87;;;1.10;;
72575;SDS011;60613;48.658;2.328;2023-05-07T10:41:44;3.70;;;0.88;;
72575;SDS011;60613;48.658;2.328;2023-05-07T10:44:10;6.03;;;1.00;;
72575;SDS011;60613;48.658;2.328;2023-05-07T10:46:36;5.15;;;1.15;;
72575;SDS011;60613;48.658;2.328;2023-05-07T10:51:31;4.53;;;0.95;;
72575;SDS011;60613;48.658;2.328;2023-05-07T10:56:38;4.30;;;0.80;;
72575;SDS011;60613;48.658;2.328;2023-05-07T11:01:54;6.80;;;0.90;;
72575;SDS011;60613;48.658;2.328;2023-05-07T11:04:22;4.18;;;1.00;;
72575;SDS011;60613;48.658;2.328;2023-05-07T11:12:18;4.13;;;1.20;;
72575;SDS011;60613;48.658;2.328;2023-05-07T11:15:06;6.47;;;1.20;;
72575;SDS011;60613;48.658;2.328;2023-05-07T11:17:54;6.32;;;0.98;;
72575;SDS011;60613;48.658;2.328;2023-05-07T11:26:00;5.60;;;1.13;;
72575;SDS011;60613;48.658;2.328;2023-05-07T11:28:28;4.63;;;0.98;;
72575;SDS011;60613;48.658;2.328;2023-05-07T11:30:55;5.68;;;1.05;;
72575;SDS011;60613;48.658;2.328;2023-05-07T11:33:22;4.72;;;1.00;;
72575;SDS011;60613;48.658;2.328;2023-05-07T11:35:50;3.88;;;0.90;;
72575;SDS011;60613;48.658;2.328;2023-05-07T11:38:18;4.37;;;0.90;;
72575;SDS011;60613;48.658;2.328;2023-05-07T11:40:48;5.22;;;0.88;;
72575;SDS011;60613;48.658;2.328;2023-05-07T11:43:18;4.13;;;0.98;;
72575;SDS011;60613;48.658;2.328;2023-05-07T11:45:44;4.82;;;1.00;;
72575;SDS011;60613;48.658;2.328;2023-05-07T11:48:11;4.55;;;1.15;;
72575;SDS011;60613;48.658;2.328;2023-05-07T11:50:49;5.47;;;1.10;;
72575;SDS011;60613;48.658;2.328;2023-05-07T11:53:24;4.10;;;0.95;;
72575;SDS011;60613;48.658;2.328;2023-05-07T11:55:57;4.57;;;0.90;;
72575;SDS011;60613;48.658;2.328;2023-05-07T11:58:23;3.42;;;1.00;;
72575;SDS011;60613;48.658;2.328;2023-05-07T12:00:53;8.00;;;0.98;;
72575;SDS011;60613;48.658;2.328;2023-05-07T12:03:19;5.47;;;1.00;;
72575;SDS011;60613;48.658;2.328;2023-05-07T12:05:46;5.00;;;0.90;;
72575;SDS011;60613;48.658;2.328;2023-05-07T12:08:15;4.70;;;1.00;;
72575;SDS011;60613;48.658;2.328;2023-05-07T12:10:44;3.85;;;0.70;;
72575;SDS011;60613;48.658;2.328;2023-05-07T12:13:18;4.50;;;1.00;;
72575;SDS011;60613;48.658;2.328;2023-05-07T12:15:51;2.70;;;0.73;;
72575;SDS011;60613;48.658;2.328;2023-05-07T12:18:18;5.15;;;1.00;;
72575;SDS011;60613;48.658;2.328;2023-05-07T12:20:44;3.22;;;0.90;;
72575;SDS011;60613;48.658;2.328;2023-05-07T12:23:11;3.83;;;1.00;;
72575;SDS011;60613;48.658;2.328;2023-05-07T12:25:38;4.63;;;1.00;;
72575;SDS011;60613;48.658;2.328;2023-05-07T12:28:04;3.47;;;0.97;;
72575;SDS011;60613;48.658;2.328;2023-05-07T12:30:37;4.97;;;0.77;;
72575;SDS011;60613;48.658;2.328;2023-05-07T12:33:03;4.18;;;1.05;;
72575;SDS011;60613;48.658;2.328;2023-05-07T12:35:36;4.37;;;0.90;;
72575;SDS011;60613;48.658;2.328;2023-05-07T12:38:13;3.67;;;0.90;;
72575;SDS011;60613;48.658;2.328;2023-05-07T12:40:40;3.63;;;0.80;;
72575;SDS011;60613;48.658;2.328;2023-05-07T12:45:43;5.53;;;1.10;;
72575;SDS011;60613;48.658;2.328;2023-05-07T12:48:10;3.70;;;1.08;;
72575;SDS011;60613;48.658;2.328;2023-05-07T12:50:36;2.63;;;0.77;;
72575;SDS011;60613;48.658;2.328;2023-05-07T12:53:05;4.60;;;1.10;;
72575;SDS011;60613;48.658;2.328;2023-05-07T12:55:34;3.63;;;0.90;;
72575;SDS011;60613;48.658;2.328;2023-05-07T12:58:19;4.90;;;1.00;;
72575;SDS011;60613;48.658;2.328;2023-05-07T13:00:50;5.13;;;0.90;;
72575;SDS011;60613;48.658;2.328;2023-05-07T13:05:52;3.55;;;1.00;;
72575;SDS011;60613;48.658;2.328;2023-05-07T13:08:26;4.68;;;1.02;;
72575;SDS011;60613;48.658;2.328;2023-05-07T13:10:57;4.00;;;1.02;;
72575;SDS011;60613;48.658;2.328;2023-05-07T13:13:24;5.23;;;0.97;;
72575;SDS011;60613;48.658;2.328;2023-05-07T13:15:50;3.90;;;1.00;;
72575;SDS011;60613;48.658;2.328;2023-05-07T13:18:16;3.80;;;0.87;;
72575;SDS011;60613;48.658;2.328;2023-05-07T13:20:42;3.58;;;0.90;;
72575;SDS011;60613;48.658;2.328;2023-05-07T13:23:08;2.22;;;0.80;;
72575;SDS011;60613;48.658;2.328;2023-05-07T13:25:34;3.00;;;1.00;;
72575;SDS011;60613;48.658;2.328;2023-05-07T13:27:59;3.30;;;0.80;;
72575;SDS011;60613;48.658;2.328;2023-05-07T13:30:25;3.83;;;0.90;;
72575;SDS011;60613;48.658;2.328;2023-05-07T13:32:51;3.58;;;0.80;;
72575;SDS011;60613;48.658;2.328;2023-05-07T13:35:20;3.53;;;0.90;;
72575;SDS011;60613;48.658;2.328;2023-05-07T13:37:46;3.47;;;0.90;;
72575;SDS011;60613;48.658;2.328;2023-05-07T13:40:13;3.72;;;1.00;;
72575;SDS011;60613;48.658;2.328;2023-05-07T13:42:38;3.53;;;0.95;;
72575;SDS011;60613;48.658;2.328;2023-05-07T13:45:04;2.90;;;0.80;;
72575;SDS011;60613;48.658;2.328;2023-05-07T13:47:30;2.63;;;0.80;;
72575;SDS011;60613;48.658;2.328;2023-05-07T13:49:56;3.90;;;1.10;;
72575;SDS011;60613;48.658;2.328;2023-05-07T13:52:21;3.27;;;0.90;;
72575;SDS011;60613;48.658;2.328;2023-05-07T13:54:47;4.43;;;1.00;;
72575;SDS011;60613;48.658;2.328;2023-05-07T13:57:12;2.70;;;0.90;;
72575;SDS011;60613;48.658;2.328;2023-05-07T13:59:38;3.80;;;0.87;;
72575;SDS011;60613;48.658;2.328;2023-05-07T14:02:03;3.00;;;0.90;;
72575;SDS011;60613;48.658;2.328;2023-05-07T14:04:30;3.17;;;1.00;;
72575;SDS011;60613;48.658;2.328;2023-05-07T14:06:56;3.47;;;0.98;;
72575;SDS011;60613;48.658;2.328;2023-05-07T14:09:21;2.23;;;0.80;;
72575;SDS011;60613;48.658;2.328;2023-05-07T14:11:47;3.72;;;1.10;;
72575;SDS011;60613;48.658;2.328;2023-05-07T14:14:16;3.30;;;0.90;;
72575;SDS011;60613;48.658;2.328;2023-05-07T14:16:42;4.40;;;1.03;;
72575;SDS011;60613;48.658;2.328;2023-05-07T14:19:08;3.97;;;0.90;;
72575;SDS011;60613;48.658;2.328;2023-05-07T14:21:33;3.70;;;1.00;;
72575;SDS011;60613;48.658;2.328;2023-05-07T14:23:59;3.53;;;0.85;;
72575;SDS011;60613;48.658;2.328;2023-05-07T14:26:25;3.07;;;1.00;;
72575;SDS011;60613;48.658;2.328;2023-05-07T14:28:52;2.65;;;0.98;;
72575;SDS011;60613;48.658;2.328;2023-05-07T14:31:19;3.05;;;0.70;;
72575;SDS011;60613;48.658;2.328;2023-05-07T14:33:46;4.45;;;1.00;;
72575;SDS011;60613;48.658;2.328;2023-05-07T14:36:11;4.13;;;0.97;;
72575;SDS011;60613;48.658;2.328;2023-05-07T14:38:37;3.63;;;1.00;;
72575;SDS011;60613;48.658;2.328;2023-05-07T14:41:03;1.50;;;0.70;;
72575;SDS011;60613;48.658;2.328;2023-05-07T14:43:28;2.30;;;0.70;;
72575;SDS011;60613;48.658;2.328;2023-05-07T14:45:54;2.97;;;1.00;;
72575;SDS011;60613;48.658;2.328;2023-05-07T14:48:20;2.05;;;0.80;;
72575;SDS011;60613;48.658;2.328;2023-05-07T14:50:48;2.80;;;0.80;;
72575;SDS011;60613;48.658;2.328;2023-05-07T14:53:14;3.10;;;0.90;;
72575;SDS011;60613;48.658;2.328;2023-05-07T14:55:40;3.42;;;0.82;;
72575;SDS011;60613;48.658;2.328;2023-05-07T14:58:06;4.63;;;1.00;;
72575;SDS011;60613;48.658;2.328;2023-05-07T15:00:32;2.67;;;0.83;;
72575;SDS011;60613;48.658;2.328;2023-05-07T15:03:01;2.35;;;0.80;;
72575;SDS011;60613;48.658;2.328;2023-05-07T15:05:32;2.33;;;0.80;;
72575;SDS011;60613;48.658;2.328;2023-05-07T15:07:57;2.00;;;0.80;;
72575;SDS011;60613;48.658;2.328;2023-05-07T15:10:23;2.10;;;0.80;;
72575;SDS011;60613;48.658;2.328;2023-05-07T15:12:49;2.63;;;0.82;;
72575;SDS011;60613;48.658;2.328;2023-05-07T15:15:15;3.00;;;0.90;;
72575;SDS011;60613;48.658;2.328;2023-05-07T15:17:41;1.73;;;0.80;;
72575;SDS011;60613;48.658;2.328;2023-05-07T15:20:06;2.57;;;0.90;;
72575;SDS011;60613;48.658;2.328;2023-05-07T15:22:33;2.67;;;1.00;;
72575;SDS011;60613;48.658;2.328;2023-05-07T15:24:58;3.05;;;0.90;;
72575;SDS011;60613;48.658;2.328;2023-05-07T15:27:24;2.30;;;0.87;;
72575;SDS011;60613;48.658;2.328;2023-05-07T15:29:51;2.60;;;0.90;;
72575;SDS011;60613;48.658;2.328;2023-05-07T15:32:17;2.72;;;0.85;;
72575;SDS011;60613;48.658;2.328;2023-05-07T15:34:42;3.63;;;0.93;;
72575;SDS011;60613;48.658;2.328;2023-05-07T15:37:08;5.05;;;1.10;;
72575;SDS011;60613;48.658;2.328;2023-05-07T15:39:34;2.92;;;1.00;;
72575;SDS011;60613;48.658;2.328;2023-05-07T15:42:00;2.50;;;0.90;;
72575;SDS011;60613;48.658;2.328;2023-05-07T15:44:26;3.42;;;1.10;;
72575;SDS011;60613;48.658;2.328;2023-05-07T15:46:53;11.55;;;1.70;;
72575;SDS011;60613;48.658;2.328;2023-05-07T15:49:19;6.25;;;1.20;;
72575;SDS011;60613;48.658;2.328;2023-05-07T15:51:46;8.43;;;1.20;;
72575;SDS011;60613;48.658;2.328;2023-05-07T15:54:12;5.90;;;1.20;;
72575;SDS011;60613;48.658;2.328;2023-05-07T15:56:38;5.85;;;1.13;;
72575;SDS011;60613;48.658;2.328;2023-05-07T15:59:04;7.33;;;1.23;;
72575;SDS011;60613;48.658;2.328;2023-05-07T16:01:30;4.82;;;1.10;;
72575;SDS011;60613;48.658;2.328;2023-05-07T16:03:56;6.63;;;1.20;;
72575;SDS011;60613;48.658;2.328;2023-05-07T16:06:21;4.97;;;1.13;;
72575;SDS011;60613;48.658;2.328;2023-05-07T16:08:47;3.47;;;0.90;;
72575;SDS011;60613;48.658;2.328;2023-05-07T16:11:13;6.43;;;1.13;;
72575;SDS011;60613;48.658;2.328;2023-05-07T16:13:38;4.50;;;1.10;;
72575;SDS011;60613;48.658;2.328;2023-05-07T16:16:04;3.88;;;1.00;;
72575;SDS011;60613;48.658;2.328;2023-05-07T16:18:30;4.80;;;1.10;;
72575;SDS011;60613;48.658;2.328;2023-05-07T16:20:57;5.50;;;1.10;;
72575;SDS011;60613;48.658;2.328;2023-05-07T16:23:24;5.80;;;1.17;;
72575;SDS011;60613;48.658;2.328;2023-05-07T16:25:50;4.25;;;1.20;;
72575;SDS011;60613;48.658;2.328;2023-05-07T16:28:15;5.57;;;1.07;;
72575;SDS011;60613;48.658;2.328;2023-05-07T16:30:41;5.85;;;1.10;;
72575;SDS011;60613;48.658;2.328;2023-05-07T16:33:07;9.13;;;1.20;;
72575;SDS011;60613;48.658;2.328;2023-05-07T16:35:32;5.93;;;1.17;;
72575;SDS011;60613;48.658;2.328;2023-05-07T16:37:58;5.15;;;1.10;;
72575;SDS011;60613;48.658;2.328;2023-05-07T16:40:24;6.10;;;1.17;;
72575;SDS011;60613;48.658;2.328;2023-05-07T16:42:49;4.57;;;1.10;;
72575;SDS011;60613;48.658;2.328;2023-05-07T16:45:15;5.13;;;1.00;;
72575;SDS011;60613;48.658;2.328;2023-05-07T16:47:43;7.13;;;1.20;;
72575;SDS011;60613;48.658;2.328;2023-05-07T16:50:09;4.63;;;0.85;;
72575;SDS011;60613;48.658;2.328;2023-05-07T16:52:35;3.85;;;1.10;;
72575;SDS011;60613;48.658;2.328;2023-05-07T16:55:00;4.53;;;1.03;;
72575;SDS011;60613;48.658;2.328;2023-05-07T16:57:27;3.28;;;0.98;;
72575;SDS011;60613;48.658;2.328;2023-05-07T16:59:54;3.70;;;1.07;;
72575;SDS011;60613;48.658;2.328;2023-05-07T17:02:20;4.93;;;1.00;;
72575;SDS011;60613;48.658;2.328;2023-05-07T17:04:46;3.85;;;1.00;;
72575;SDS011;60613;48.658;2.328;2023-05-07T17:07:12;4.73;;;1.00;;
72575;SDS011;60613;48.658;2.328;2023-05-07T17:09:39;2.58;;;0.90;;
72575;SDS011;60613;48.658;2.328;2023-05-07T17:12:04;2.88;;;0.77;;
72575;SDS011;60613;48.658;2.328;2023-05-07T17:14:30;4.43;;;0.90;;
72575;SDS011;60613;48.658;2.328;2023-05-07T17:16:56;5.20;;;0.87;;
72575;SDS011;60613;48.658;2.328;2023-05-07T17:19:21;4.47;;;0.88;;
72575;SDS011;60613;48.658;2.328;2023-05-07T17:21:47;6.03;;;0.93;;
72575;SDS011;60613;48.658;2.328;2023-05-07T17:24:13;4.03;;;1.10;;
72575;SDS011;60613;48.658;2.328;2023-05-07T17:26:38;4.63;;;0.80;;
72575;SDS011;60613;48.658;2.328;2023-05-07T17:29:06;4.57;;;1.07;;
72575;SDS011;60613;48.658;2.328;2023-05-07T17:31:33;5.28;;;1.00;;
72575;SDS011;60613;48.658;2.328;2023-05-07T17:33:58;3.72;;;1.00;;
72575;SDS011;60613;48.658;2.328;2023-05-07T17:36:24;5.10;;;0.90;;
72575;SDS011;60613;48.658;2.328;2023-05-07T17:38:49;9.77;;;1.50;;
72575;SDS011;60613;48.658;2.328;2023-05-07T17:41:15;8.52;;;1.60;;
72575;SDS011;60613;48.658;2.328;2023-05-07T17:43:41;8.73;;;1.40;;
72575;SDS011;60613;48.658;2.328;2023-05-07T17:46:07;7.22;;;1.55;;
72575;SDS011;60613;48.658;2.328;2023-05-07T17:48:33;8.07;;;2.50;;
72575;SDS011;60613;48.658;2.328;2023-05-07T17:51:02;9.83;;;3.90;;
72575;SDS011;60613;48.658;2.328;2023-05-07T17:53:28;11.65;;;3.75;;
72575;SDS011;60613;48.658;2.328;2023-05-07T17:55:54;13.45;;;4.32;;
72575;SDS011;60613;48.658;2.328;2023-05-07T17:58:19;10.33;;;3.87;;
72575;SDS011;60613;48.658;2.328;2023-05-07T18:00:46;10.02;;;3.28;;
72575;SDS011;60613;48.658;2.328;2023-05-07T18:03:12;12.20;;;5.60;;
72575;SDS011;60613;48.658;2.328;2023-05-07T18:05:38;17.97;;;9.10;;
72575;SDS011;60613;48.658;2.328;2023-05-07T18:08:05;20.45;;;13.18;;
72575;SDS011;60613;48.658;2.328;2023-05-07T18:10:31;18.35;;;11.57;;
72575;SDS011;60613;48.658;2.328;2023-05-07T18:12:56;17.30;;;10.93;;
72575;SDS011;60613;48.658;2.328;2023-05-07T18:15:22;17.52;;;10.35;;
72575;SDS011;60613;48.658;2.328;2023-05-07T18:17:47;15.83;;;9.70;;
72575;SDS011;60613;48.658;2.328;2023-05-07T18:20:13;16.50;;;9.60;;
72575;SDS011;60613;48.658;2.328;2023-05-07T18:22:39;17.27;;;9.45;;
72575;SDS011;60613;48.658;2.328;2023-05-07T18:25:05;17.92;;;10.57;;
72575;SDS011;60613;48.658;2.328;2023-05-07T18:27:31;16.55;;;9.27;;
72575;SDS011;60613;48.658;2.328;2023-05-07T18:29:57;17.60;;;10.50;;
72575;SDS011;60613;48.658;2.328;2023-05-07T18:32:22;16.23;;;8.63;;
72575;SDS011;60613;48.658;2.328;2023-05-07T18:34:48;15.15;;;9.82;;
72575;SDS011;60613;48.658;2.328;2023-05-07T18:37:14;16.57;;;8.90;;
72575;SDS011;60613;48.658;2.328;2023-05-07T18:39:39;19.33;;;11.05;;
72575;SDS011;60613;48.658;2.328;2023-05-07T18:42:08;15.27;;;9.00;;
72575;SDS011;60613;48.658;2.328;2023-05-07T18:44:34;15.73;;;9.63;;
72575;SDS011;60613;48.658;2.328;2023-05-07T18:47:02;16.67;;;9.87;;
72575;SDS011;60613;48.658;2.328;2023-05-07T18:49:28;16.08;;;9.77;;
72575;SDS011;60613;48.658;2.328;2023-05-07T18:51:54;16.38;;;9.20;;
72575;SDS011;60613;48.658;2.328;2023-05-07T18:54:21;15.10;;;9.30;;
72575;SDS011;60613;48.658;2.328;2023-05-07T18:56:46;14.23;;;8.43;;
72575;SDS011;60613;48.658;2.328;2023-05-07T18:59:12;14.30;;;8.23;;
